Time;durP1;ratioP1;P1;durP2;ratioP2;P2;SDS_P1;SDS_P2;PMS_P1;PMS_P2;Temp;Humidity;BMP_temperature;BMP_pressure;BME280_temperature;BME280_humidity;BME280_pressure;Samples;Min_cycle;Max_cycle;Signal;HPM_P1;HPM_P2
2023/07/20 00:02:07;;;;;;;2.40;2.20;;;;;;;20.91;72.69;100158.19;5024883;28;20253;-77
2023/07/20 00:04:32;;;;;;;2.83;2.20;;;;;;;20.83;73.00;100160.34;5020718;28;20188;-76
2023/07/20 00:07:00;;;;;;;2.50;2.30;;;;;;;20.76;73.19;100162.47;5017296;28;20213;-76
2023/07/20 00:09:26;;;;;;;2.13;2.03;;;;;;;20.70;73.58;100165.41;5016685;28;20187;-77
2023/07/20 00:11:52;;;;;;;2.80;2.60;;;;;;;20.65;73.77;100160.38;5021053;28;20649;-76
2023/07/20 00:14:18;;;;;;;2.90;2.27;;;;;;;20.58;74.27;100159.00;5019215;28;20206;-76
2023/07/20 00:16:55;;;;;;;2.33;2.13;;;;;;;20.53;74.43;100161.91;5016959;28;20206;-76
2023/07/20 00:19:24;;;;;;;2.53;2.20;;;;;;;20.47;74.59;100149.06;5016828;28;20191;-77
2023/07/20 00:21:49;;;;;;;2.50;2.30;;;;;;;20.42;75.14;100158.97;5015586;28;20205;-78
2023/07/20 00:24:15;;;;;;;2.63;2.43;;;;;;;20.37;75.13;100161.00;5016417;28;20192;-76
2023/07/20 00:26:40;;;;;;;2.13;2.00;;;;;;;20.32;75.64;100163.88;5012933;28;20713;-77
2023/07/20 00:29:05;;;;;;;2.43;2.23;;;;;;;20.25;75.47;100158.09;5022721;28;20197;-77
2023/07/20 00:31:31;;;;;;;2.70;2.40;;;;;;;20.20;75.30;100162.72;5016827;28;20192;-76
2023/07/20 00:33:56;;;;;;;2.60;2.40;;;;;;;20.16;75.09;100162.94;5019840;28;20309;-76
2023/07/20 00:36:21;;;;;;;2.50;2.30;;;;;;;20.09;75.39;100150.13;5020632;28;20222;-76
2023/07/20 00:38:47;;;;;;;2.23;2.03;;;;;;;20.04;75.23;100157.38;5019244;28;20299;-77
2023/07/20 00:41:13;;;;;;;1.97;1.87;;;;;;;20.00;75.58;100157.63;5017927;28;20199;-76
2023/07/20 00:43:38;;;;;;;2.03;1.83;;;;;;;19.94;75.60;100159.66;5020945;28;20185;-76
2023/07/20 00:46:04;;;;;;;3.37;2.10;;;;;;;19.92;75.52;100158.00;5018931;28;20199;-76
2023/07/20 00:48:30;;;;;;;5.40;2.20;;;;;;;19.88;75.73;100159.09;5017204;28;20209;-76
2023/07/20 00:50:59;;;;;;;2.37;2.17;;;;;;;19.84;76.20;100160.97;5021011;28;20214;-76
2023/07/20 00:53:24;;;;;;;2.53;2.30;;;;;;;19.82;76.25;100162.00;5018193;28;20593;-76
2023/07/20 00:55:50;;;;;;;2.87;2.67;;;;;;;19.78;76.95;100156.03;5013847;28;20191;-76
2023/07/20 00:58:15;;;;;;;3.23;2.70;;;;;;;19.72;76.90;100154.56;5014468;28;20215;-76
2023/07/20 01:00:41;;;;;;;5.73;2.40;;;;;;;19.69;76.91;100162.59;5018494;28;20198;-77
2023/07/20 01:03:06;;;;;;;2.60;2.40;;;;;;;19.64;77.19;100154.97;5017304;28;20201;-76
2023/07/20 01:05:40;;;;;;;3.60;2.50;;;;;;;19.61;78.08;100160.34;5021891;28;20186;-77
2023/07/20 01:08:15;;;;;;;3.77;2.50;;;;;;;19.54;78.08;100158.09;5018867;28;20212;-75
2023/07/20 01:10:51;;;;;;;3.07;2.73;;;;;;;19.48;78.24;100162.72;5019351;28;20289;-76
2023/07/20 01:13:18;;;;;;;3.77;2.87;;;;;;;19.43;78.39;100161.22;5018068;28;20662;-77
2023/07/20 01:15:49;;;;;;;3.47;2.87;;;;;;;19.39;78.59;100157.91;5017300;28;20288;-76
2023/07/20 01:18:14;;;;;;;3.20;2.93;;;;;;;19.36;78.69;100157.22;5012702;28;20270;-76
2023/07/20 01:20:39;;;;;;;3.13;2.40;;;;;;;19.31;79.08;100157.41;5023821;28;20195;-76
2023/07/20 01:23:31;;;;;;;2.77;2.43;;;;;;;19.29;78.89;100159.25;5016162;28;20195;-77
2023/07/20 01:26:11;;;;;;;2.90;2.57;;;;;;;19.24;79.09;100156.03;5032369;28;20317;-76
2023/07/20 01:28:57;;;;;;;3.03;2.30;;;;;;;19.21;79.23;100161.41;5021402;28;20597;-76
2023/07/20 01:31:24;;;;;;;2.97;2.67;;;;;;;19.17;79.77;100158.91;5019931;28;20226;-77
2023/07/20 01:33:52;;;;;;;2.97;2.67;;;;;;;19.16;80.14;100164.25;5015900;28;20581;-76
2023/07/20 01:36:19;;;;;;;2.83;2.57;;;;;;;19.13;80.11;100154.75;5011578;28;20211;-77
2023/07/20 01:38:46;;;;;;;2.57;2.30;;;;;;;19.11;80.83;100156.59;5020947;28;20250;-77
2023/07/20 01:41:11;;;;;;;2.40;2.20;;;;;;;19.09;81.64;100149.72;5019533;28;20249;-77
2023/07/20 01:43:37;;;;;;;3.47;2.40;;;;;;;19.06;81.72;100155.97;5021803;28;20188;-76
2023/07/20 01:46:02;;;;;;;3.13;2.60;;;;;;;19.03;81.50;100158.72;5020738;28;20202;-77
2023/07/20 01:48:28;;;;;;;2.13;2.00;;;;;;;19.00;81.86;100156.22;5020161;28;20324;-77
2023/07/20 01:50:53;;;;;;;3.20;2.10;;;;;;;18.97;82.29;100151.97;5018128;28;20219;-76
2023/07/20 01:53:19;;;;;;;3.77;2.60;;;;;;;18.95;83.17;100147.75;5018477;28;20218;-77
2023/07/20 01:55:45;;;;;;;2.57;2.37;;;;;;;18.92;82.93;100151.31;5016776;28;20207;-77
2023/07/20 01:58:10;;;;;;;2.60;2.40;;;;;;;18.89;82.93;100148.84;5019588;28;20297;-78
2023/07/20 02:00:37;;;;;;;3.70;2.27;;;;;;;18.85;83.08;100148.13;5017242;28;20290;-77
2023/07/20 02:03:02;;;;;;;3.20;2.47;;;;;;;18.83;83.37;100149.13;5027916;28;20191;-77
2023/07/20 02:05:27;;;;;;;2.30;2.10;;;;;;;18.82;84.19;100147.41;5036997;28;20458;-77
2023/07/20 02:07:53;;;;;;;3.30;2.43;;;;;;;18.80;84.83;100146.63;5024690;28;21207;-76
2023/07/20 02:10:18;;;;;;;2.53;2.33;;;;;;;18.77;85.40;100154.63;5025340;28;20218;-76
2023/07/20 02:12:43;;;;;;;3.27;2.50;;;;;;;18.73;84.98;100148.69;5020829;28;20316;-77
2023/07/20 02:15:09;;;;;;;2.53;2.33;;;;;;;18.70;84.79;100144.44;5019551;28;20180;-76
2023/07/20 02:17:35;;;;;;;3.27;2.23;;;;;;;18.67;84.50;100149.81;5018305;28;20215;-76
2023/07/20 02:20:00;;;;;;;3.13;2.60;;;;;;;18.66;84.10;100142.88;5021691;28;20238;-76
2023/07/20 02:22:25;;;;;;;2.63;2.30;;;;;;;18.64;83.97;100146.47;5018632;28;20267;-76
2023/07/20 02:24:51;;;;;;;2.53;2.33;;;;;;;18.64;85.32;100155.19;5013668;28;20250;-76
2023/07/20 02:27:16;;;;;;;2.63;2.43;;;;;;;18.63;85.80;100143.00;5020472;28;20227;-76
2023/07/20 02:29:42;;;;;;;2.40;2.20;;;;;;;18.61;86.24;100147.44;5017994;28;20192;-77
2023/07/20 02:32:09;;;;;;;3.17;2.40;;;;;;;18.59;86.52;100150.16;5017403;28;20215;-77
2023/07/20 02:34:35;;;;;;;2.53;2.33;;;;;;;18.59;87.11;100144.06;5022495;28;20199;-76
2023/07/20 02:37:00;;;;;;;2.67;2.40;;;;;;;18.57;87.20;100146.75;5020808;28;20583;-76
2023/07/20 02:39:27;;;;;;;3.30;2.30;;;;;;;18.53;87.34;100153.03;5021227;28;20270;-77
2023/07/20 02:41:52;;;;;;;2.53;2.33;;;;;;;18.52;87.20;100158.34;5025678;28;20633;-77
2023/07/20 02:44:17;;;;;;;2.27;1.97;;;;;;;18.50;86.35;100152.31;5016266;28;20197;-77
2023/07/20 02:46:43;;;;;;;2.10;2.00;;;;;;;18.47;86.62;100149.84;5014686;28;20204;-76
2023/07/20 02:49:08;;;;;;;2.70;2.50;;;;;;;18.46;86.95;100158.63;5019987;28;20226;-77
2023/07/20 02:51:34;;;;;;;2.53;2.33;;;;;;;18.44;87.52;100156.06;5016201;28;20179;-78
2023/07/20 02:53:59;;;;;;;2.50;2.30;;;;;;;18.42;87.21;100158.78;5019827;28;20217;-77
2023/07/20 02:56:25;;;;;;;2.37;2.17;;;;;;;18.39;87.51;100153.66;5018824;28;20250;-76
2023/07/20 02:58:52;;;;;;;2.73;2.53;;;;;;;18.38;88.07;100156.31;5018749;28;20646;-77
2023/07/20 03:01:17;;;;;;;2.27;2.07;;;;;;;18.35;88.17;100151.25;5015081;28;20224;-76
2023/07/20 03:03:45;;;;;;;2.43;2.23;;;;;;;18.32;88.59;100154.84;5016944;28;20291;-77
2023/07/20 03:06:11;;;;;;;2.60;2.40;;;;;;;18.30;88.73;100161.06;5021047;28;20187;-77
2023/07/20 03:08:36;;;;;;;2.57;2.37;;;;;;;18.27;89.22;100155.03;5025789;28;20211;-77
2023/07/20 03:11:01;;;;;;;2.40;2.20;;;;;;;18.24;89.50;100160.41;5019707;28;20215;-76
2023/07/20 03:13:27;;;;;;;2.60;2.40;;;;;;;18.21;89.51;100162.31;5018613;28;20210;-77
2023/07/20 03:15:53;;;;;;;2.43;2.23;;;;;;;18.18;89.70;100154.56;5016301;28;20282;-77
2023/07/20 03:18:18;;;;;;;2.57;2.10;;;;;;;18.14;89.98;100169.56;5022947;28;20298;-77
2023/07/20 03:20:44;;;;;;;2.63;2.43;;;;;;;18.11;90.14;100169.69;5019301;28;20273;-77
2023/07/20 03:23:10;;;;;;;2.30;2.10;;;;;;;18.07;89.96;100165.53;5021008;28;22208;-77
2023/07/20 03:25:37;;;;;;;2.10;2.00;;;;;;;18.02;90.21;100168.31;5014877;28;20191;-77
2023/07/20 03:28:02;;;;;;;3.00;2.30;;;;;;;17.98;89.95;100167.59;5014666;28;20273;-76
2023/07/20 03:30:28;;;;;;;1.83;1.73;;;;;;;17.94;89.98;100171.22;5022646;28;20184;-77
2023/07/20 03:32:53;;;;;;;2.50;2.30;;;;;;;17.91;90.39;100176.63;5021397;28;20210;-77
2023/07/20 03:35:18;;;;;;;3.07;2.43;;;;;;;17.87;90.46;100168.94;5017173;28;20460;-76
2023/07/20 03:37:44;;;;;;;2.23;2.03;;;;;;;17.83;90.29;100165.59;5020008;28;20227;-76
2023/07/20 03:40:10;;;;;;;2.30;2.10;;;;;;;17.80;90.42;100179.66;5018513;28;20836;-77
2023/07/20 03:42:36;;;;;;;2.50;2.30;;;;;;;17.79;90.37;100175.34;5021158;28;20253;-77
2023/07/20 03:45:02;;;;;;;2.33;2.13;;;;;;;17.78;90.40;100172.75;5016499;28;20267;-76
2023/07/20 03:47:28;;;;;;;2.90;2.20;;;;;;;17.76;90.56;100172.84;5016633;28;20265;-78
2023/07/20 03:49:53;;;;;;;3.50;2.57;;;;;;;17.77;90.63;100168.47;5018311;28;20184;-76
2023/07/20 03:52:18;;;;;;;2.60;2.40;;;;;;;17.76;90.60;100178.06;5011860;28;20410;-77
2023/07/20 03:54:44;;;;;;;2.97;2.37;;;;;;;17.75;90.59;100179.00;5022909;28;20270;-77
2023/07/20 03:57:09;;;;;;;2.47;2.27;;;;;;;17.76;90.77;100177.25;5019682;28;20203;-77
2023/07/20 03:59:34;;;;;;;2.37;2.17;;;;;;;17.77;90.92;100178.94;5018713;28;20192;-76
2023/07/20 04:02:00;;;;;;;2.90;2.50;;;;;;;17.78;90.64;100181.50;5016355;28;20204;-77
2023/07/20 04:04:25;;;;;;;2.47;2.23;;;;;;;17.78;90.84;100184.09;5011921;28;20242;-76
2023/07/20 04:06:50;;;;;;;2.50;2.30;;;;;;;17.79;90.53;100175.34;5015944;28;20500;-77
2023/07/20 04:09:16;;;;;;;2.63;2.43;;;;;;;17.81;90.73;100185.75;5012618;28;20196;-77
2023/07/20 04:11:41;;;;;;;2.63;2.30;;;;;;;17.83;90.80;100190.03;5014971;28;20191;-77
2023/07/20 04:14:06;;;;;;;2.50;2.30;;;;;;;17.86;90.37;100185.53;5018637;28;20209;-77
2023/07/20 04:16:33;;;;;;;2.93;2.73;;;;;;;17.90;90.54;100185.38;5011337;28;20196;-77
2023/07/20 04:18:58;;;;;;;2.67;2.30;;;;;;;17.94;90.40;100184.31;5014737;28;20250;-77
2023/07/20 04:21:27;;;;;;;2.83;2.50;;;;;;;17.98;90.89;100185.94;5014364;28;20184;-76
2023/07/20 04:23:52;;;;;;;2.90;2.60;;;;;;;18.02;91.08;100183.19;5013995;28;20187;-77
2023/07/20 04:26:17;;;;;;;2.60;2.40;;;;;;;18.05;90.83;100183.06;5013906;28;20198;-76
2023/07/20 04:28:43;;;;;;;3.07;2.57;;;;;;;18.08;90.68;100183.78;5013906;28;20207;-78
2023/07/20 04:31:13;;;;;;;2.80;2.60;;;;;;;18.12;91.05;100187.13;5015522;28;20188;-77
2023/07/20 04:33:38;;;;;;;4.20;2.63;;;;;;;18.19;90.61;100185.97;5014216;28;20200;-78
2023/07/20 04:36:04;;;;;;;3.30;2.53;;;;;;;18.31;90.05;100189.81;5010789;28;20196;-77
2023/07/20 04:38:29;;;;;;;2.80;2.40;;;;;;;18.42;89.56;100187.59;5014951;28;20220;-77
2023/07/20 04:40:55;;;;;;;3.10;2.80;;;;;;;18.57;88.06;100193.91;5012624;28;20190;-78
2023/07/20 04:43:20;;;;;;;3.43;2.23;;;;;;;18.76;87.39;100187.88;5010308;28;20219;-77
2023/07/20 04:45:46;;;;;;;2.80;2.60;;;;;;;18.98;86.07;100192.19;5013045;28;20838;-77
2023/07/20 04:48:14;;;;;;;3.20;2.57;;;;;;;19.30;84.91;100192.44;5014891;28;20212;-76
2023/07/20 04:50:45;;;;;;;2.90;2.40;;;;;;;19.71;83.37;100192.25;5016304;28;20690;-78
2023/07/20 04:53:13;;;;;;;3.63;2.30;;;;;;;19.94;82.65;100182.41;5019536;28;20214;-77
2023/07/20 04:55:39;;;;;;;3.73;2.47;;;;;;;19.97;82.21;100182.25;5015287;28;20190;-77
2023/07/20 04:58:06;;;;;;;4.30;2.80;;;;;;;20.04;82.22;100180.19;5015656;28;20203;-77
2023/07/20 05:00:33;;;;;;;2.97;2.63;;;;;;;20.07;81.79;100183.50;5011886;28;20195;-77
2023/07/20 05:02:58;;;;;;;7.27;2.83;;;;;;;20.08;81.63;100177.31;5022078;28;20869;-77
2023/07/20 05:05:24;;;;;;;6.47;2.77;;;;;;;20.08;81.56;100182.56;5012263;28;20190;-78
2023/07/20 05:07:49;;;;;;;5.00;2.90;;;;;;;20.10;81.44;100178.09;5011240;28;20210;-78
2023/07/20 05:10:14;;;;;;;2.57;2.20;;;;;;;20.19;80.91;100181.19;5011087;28;20210;-77
2023/07/20 05:12:40;;;;;;;3.60;2.70;;;;;;;20.25;80.77;100179.09;5008185;28;20219;-76
2023/07/20 05:15:05;;;;;;;3.10;2.80;;;;;;;20.41;80.53;100183.56;5010620;28;20186;-75
2023/07/20 05:17:31;;;;;;;3.77;2.70;;;;;;;20.70;79.45;100187.28;5014017;28;20867;-77
2023/07/20 05:19:56;;;;;;;3.03;2.70;;;;;;;20.96;78.72;100192.94;5015557;28;20250;-77
2023/07/20 05:22:21;;;;;;;3.77;2.43;;;;;;;21.21;77.95;100188.13;5013301;28;20673;-78
2023/07/20 05:24:47;;;;;;;2.87;2.10;;;;;;;21.77;76.12;100193.81;5024101;28;20180;-77
2023/07/20 05:27:12;;;;;;;2.40;2.03;;;;;;;22.31;75.14;100185.41;5027100;28;20258;-78
2023/07/20 05:29:37;;;;;;;3.43;2.13;;;;;;;22.61;74.40;100196.88;5021307;28;20188;-77
2023/07/20 05:32:03;;;;;;;3.57;2.17;;;;;;;22.61;74.27;100202.13;5032824;28;20266;-76
2023/07/20 05:34:29;;;;;;;2.60;2.00;;;;;;;22.73;74.23;100196.09;5021073;28;20274;-78
2023/07/20 05:36:55;;;;;;;2.67;2.23;;;;;;;22.87;73.58;100191.75;5020742;28;20711;-78
2023/07/20 05:39:20;;;;;;;2.90;2.30;;;;;;;22.76;73.38;100190.66;5009994;28;20303;-76
2023/07/20 05:41:45;;;;;;;3.03;2.37;;;;;;;22.58;73.65;100194.41;5013909;28;20278;-76
2023/07/20 05:44:11;;;;;;;3.70;2.67;;;;;;;22.62;74.12;100196.75;5023725;28;20188;-77
2023/07/20 05:46:36;;;;;;;2.37;2.17;;;;;;;22.94;73.41;100185.16;5012476;28;20190;-77
2023/07/20 05:49:01;;;;;;;3.50;2.60;;;;;;;23.48;72.55;100187.03;5011144;28;20191;-78
2023/07/20 05:51:27;;;;;;;2.47;2.27;;;;;;;24.20;71.30;100188.53;5015263;28;20282;-78
2023/07/20 05:53:52;;;;;;;2.77;2.30;;;;;;;24.76;69.51;100185.59;5015673;28;20299;-78
2023/07/20 05:56:18;;;;;;;2.93;2.20;;;;;;;25.33;68.63;100187.78;5022407;28;20195;-75
2023/07/20 05:58:43;;;;;;;5.60;2.50;;;;;;;25.65;67.96;100187.22;5010696;28;20266;-76
2023/07/20 06:01:08;;;;;;;3.73;2.17;;;;;;;26.09;66.70;100190.16;5024851;28;20693;-77
2023/07/20 06:03:34;;;;;;;2.57;2.37;;;;;;;26.12;66.30;100188.13;5013085;28;20648;-75
2023/07/20 06:06:01;;;;;;;4.23;2.60;;;;;;;26.27;65.83;100185.28;5008620;28;20175;-77
2023/07/20 06:08:28;;;;;;;4.97;2.13;;;;;;;26.71;65.35;100186.28;5020783;28;20211;-76
2023/07/20 06:10:54;;;;;;;5.53;2.50;;;;;;;26.65;64.13;100188.56;5019247;28;20191;-77
2023/07/20 06:13:19;;;;;;;4.13;2.42;;;;;;;27.35;63.72;100181.28;5026955;28;20207;-78
2023/07/20 06:15:44;;;;;;;2.45;2.25;;;;;;;27.69;63.37;100195.31;5018596;28;20188;-77
2023/07/20 06:18:10;;;;;;;6.60;2.83;;;;;;;27.05;62.72;100196.06;5024517;28;20250;-78
2023/07/20 06:20:35;;;;;;;3.38;2.47;;;;;;;26.86;63.48;100194.88;5020824;28;20585;-77
2023/07/20 06:23:00;;;;;;;3.17;1.98;;;;;;;26.68;63.99;100193.63;5016345;28;20183;-77
2023/07/20 06:25:26;;;;;;;2.78;2.20;;;;;;;26.51;63.88;100189.66;5027955;28;20290;-77
2023/07/20 06:27:51;;;;;;;11.87;3.40;;;;;;;26.13;64.42;100192.47;5017648;28;20282;-77
2023/07/20 06:30:17;;;;;;;4.03;2.63;;;;;;;25.89;65.09;100195.16;5025098;28;20655;-77
2023/07/20 06:32:43;;;;;;;2.63;2.03;;;;;;;25.64;65.66;100190.88;5026379;28;20345;-77
2023/07/20 06:35:08;;;;;;;2.87;2.20;;;;;;;25.50;65.80;100195.34;5024182;28;20195;-77
2023/07/20 06:37:34;;;;;;;3.70;2.70;;;;;;;25.22;66.79;100186.75;5028513;28;20223;-78
2023/07/20 06:40:03;;;;;;;6.17;2.90;;;;;;;25.07;66.93;100198.44;5013956;28;20281;-76
2023/07/20 06:42:29;;;;;;;3.47;2.50;;;;;;;24.89;67.56;100201.44;5019814;28;20187;-77
2023/07/20 06:44:54;;;;;;;3.67;2.53;;;;;;;24.86;67.78;100201.66;5029775;28;20183;-76
2023/07/20 06:47:20;;;;;;;2.63;2.10;;;;;;;24.89;67.60;100198.78;5020188;28;20247;-78
2023/07/20 06:49:45;;;;;;;2.63;2.17;;;;;;;24.86;67.54;100200.81;5018851;28;20191;-78
2023/07/20 06:52:10;;;;;;;2.67;2.00;;;;;;;24.79;68.04;100203.03;5024565;28;20215;-77
2023/07/20 06:54:36;;;;;;;3.93;2.10;;;;;;;24.74;67.97;100205.16;5028766;28;20203;-77
2023/07/20 06:57:01;;;;;;;3.53;2.37;;;;;;;24.69;68.43;100204.63;5017222;28;20219;-77
2023/07/20 06:59:27;;;;;;;6.20;3.20;;;;;;;24.54;69.09;100198.56;5011883;28;20192;-77
2023/07/20 07:01:52;;;;;;;3.73;2.67;;;;;;;24.49;69.12;100198.91;5013159;28;20581;-77
2023/07/20 07:04:17;;;;;;;3.97;2.50;;;;;;;24.34;69.71;100204.28;5027418;28;20221;-79
2023/07/20 07:06:43;;;;;;;3.17;2.17;;;;;;;24.45;70.12;100195.63;5020950;28;20218;-77
2023/07/20 07:09:08;;;;;;;3.00;2.50;;;;;;;24.95;69.60;100194.88;5020580;28;20271;-78
2023/07/20 07:11:34;;;;;;;3.10;2.30;;;;;;;25.23;68.81;100196.38;5019269;28;20273;-77
2023/07/20 07:13:59;;;;;;;3.40;2.00;;;;;;;25.32;68.50;100194.88;5018211;28;20258;-78
2023/07/20 07:16:24;;;;;;;2.23;2.03;;;;;;;25.91;67.42;100193.22;5023842;28;20191;-78
2023/07/20 07:18:51;;;;;;;4.00;2.13;;;;;;;26.13;66.86;100203.09;5024891;28;20586;-77
2023/07/20 07:21:16;;;;;;;2.67;2.00;;;;;;;26.19;67.01;100200.94;5023277;28;20969;-78
2023/07/20 07:23:43;;;;;;;4.57;2.17;;;;;;;26.15;67.33;100203.00;5015589;28;20271;-77
2023/07/20 07:26:09;;;;;;;3.40;2.30;;;;;;;26.30;66.15;100203.63;5016861;28;20549;-77
2023/07/20 07:28:34;;;;;;;3.23;2.17;;;;;;;26.90;66.04;100200.78;5016485;28;20219;-79
2023/07/20 07:31:00;;;;;;;2.28;2.05;;;;;;;27.36;65.30;100201.56;5029538;28;20200;-77
2023/07/20 07:33:26;;;;;;;4.78;2.45;;;;;;;27.64;64.24;100199.34;5029229;28;20710;-78
2023/07/20 07:35:54;;;;;;;2.45;1.70;;;;;;;27.91;63.04;100201.50;5027769;28;20193;-77
2023/07/20 07:38:19;;;;;;;3.55;2.20;;;;;;;28.31;62.00;100194.63;5028668;28;20703;-76
2023/07/20 07:40:45;;;;;;;3.00;1.85;;;;;;;28.82;62.22;100200.94;5022147;28;20275;-76
2023/07/20 07:43:11;;;;;;;5.53;2.35;;;;;;;29.20;61.79;100203.84;5012725;28;20194;-79
2023/07/20 07:45:37;;;;;;;5.18;2.13;;;;;;;29.59;60.17;100187.94;5029697;28;20207;-79
2023/07/20 07:48:03;;;;;;;2.40;1.85;;;;;;;29.77;59.87;100196.06;5019654;28;20218;-77
2023/07/20 07:50:29;;;;;;;3.15;2.17;;;;;;;29.95;59.43;100193.53;5019037;28;20192;-78
2023/07/20 07:52:55;;;;;;;2.47;1.88;;;;;;;29.57;59.85;100203.22;5018073;28;20204;-77
2023/07/20 07:55:20;;;;;;;3.95;2.40;;;;;;;29.32;60.02;100196.56;5013018;28;20188;-78
2023/07/20 07:57:47;;;;;;;2.13;1.90;;;;;;;29.23;60.06;100202.75;5015947;28;21056;-77
2023/07/20 08:00:14;;;;;;;4.28;2.00;;;;;;;28.80;60.64;100196.72;5014225;28;20188;-77
2023/07/20 08:02:42;;;;;;;2.28;2.00;;;;;;;28.71;60.64;100193.88;5024383;28;20256;-75
2023/07/20 08:05:07;;;;;;;3.78;2.35;;;;;;;28.36;60.98;100203.09;5012382;28;20180;-76
2023/07/20 08:07:32;;;;;;;3.33;2.42;;;;;;;28.18;61.11;100202.00;5012257;28;20230;-76
2023/07/20 08:09:59;;;;;;;3.30;2.17;;;;;;;28.15;60.98;100197.78;5017574;28;20184;-78
2023/07/20 08:12:24;;;;;;;5.03;2.08;;;;;;;28.26;61.21;100200.38;5022178;28;20211;-78
2023/07/20 08:14:49;;;;;;;3.30;2.22;;;;;;;28.14;61.11;100196.09;5014302;28;20188;-77
2023/07/20 08:17:15;;;;;;;1.80;1.70;;;;;;;27.80;61.90;100205.06;5014654;28;20208;-77
2023/07/20 08:19:41;;;;;;;2.65;1.90;;;;;;;28.06;61.49;100199.38;5026001;28;20271;-76
2023/07/20 08:22:07;;;;;;;2.10;1.90;;;;;;;28.32;61.96;100199.00;5016875;28;20194;-75
2023/07/20 08:24:33;;;;;;;3.58;1.73;;;;;;;28.56;61.30;100195.22;5019479;28;20187;-75
2023/07/20 08:26:58;;;;;;;3.17;2.10;;;;;;;28.60;61.27;100192.13;5025919;28;20215;-77
2023/07/20 08:29:24;;;;;;;2.22;1.70;;;;;;;28.26;61.93;100192.38;5023724;28;20188;-76
2023/07/20 08:31:49;;;;;;;2.85;1.90;;;;;;;28.59;61.00;100200.25;5014893;28;20195;-77
2023/07/20 08:34:14;;;;;;;2.55;1.80;;;;;;;28.68;61.29;100193.28;5025015;28;20308;-78
2023/07/20 08:36:40;;;;;;;3.33;2.03;;;;;;;28.78;60.39;100191.53;5017825;28;20714;-76
2023/07/20 08:39:07;;;;;;;3.15;1.70;;;;;;;28.62;59.94;100196.50;5023497;28;20567;-76
2023/07/20 08:41:34;;;;;;;3.15;2.50;;;;;;;28.20;59.42;100200.03;5016880;28;20204;-76
2023/07/20 08:44:00;;;;;;;5.72;2.30;;;;;;;28.44;60.15;100191.78;5021473;28;21415;-77
2023/07/20 08:46:28;;;;;;;4.82;2.03;;;;;;;28.60;60.15;100191.28;5021973;28;20719;-77
2023/07/20 08:48:55;;;;;;;3.33;1.90;;;;;;;28.60;60.24;100189.47;5024135;28;20627;-77
2023/07/20 08:51:21;;;;;;;2.90;1.80;;;;;;;28.76;59.66;100196.16;5017488;28;20709;-76
2023/07/20 08:53:49;;;;;;;2.83;1.80;;;;;;;28.85;59.89;100189.19;5026591;28;20206;-77
2023/07/20 08:56:16;;;;;;;2.35;2.00;;;;;;;28.77;59.27;100181.88;5028759;28;20188;-77
2023/07/20 08:58:43;;;;;;;3.00;2.10;;;;;;;28.52;59.79;100180.47;5017570;28;20204;-76
2023/07/20 09:01:10;;;;;;;4.32;1.50;;;;;;;28.44;59.87;100187.28;5016132;28;20266;-77
2023/07/20 09:03:39;;;;;;;1.77;1.67;;;;;;;28.27;60.07;100186.09;5020256;28;20187;-77
2023/07/20 09:06:05;;;;;;;2.75;2.05;;;;;;;28.21;60.07;100199.06;5026221;28;20203;-77
2023/07/20 09:08:30;;;;;;;3.05;1.80;;;;;;;27.81;59.70;100185.50;5027299;28;20349;-76
2023/07/20 09:10:56;;;;;;;3.07;2.00;;;;;;;27.74;60.50;100192.28;5024948;28;20651;-76
2023/07/20 09:13:21;;;;;;;2.77;2.00;;;;;;;27.64;61.38;100188.69;5020323;28;20207;-77
2023/07/20 09:15:50;;;;;;;2.10;1.70;;;;;;;27.35;61.05;100191.91;5026152;28;20239;-78
2023/07/20 09:18:27;;;;;;;2.77;2.10;;;;;;;26.95;61.41;100195.97;5023564;28;20214;-78
2023/07/20 09:20:53;;;;;;;1.90;1.57;;;;;;;26.77;61.89;100188.44;5024942;28;20194;-77
2023/07/20 09:23:19;;;;;;;4.03;2.30;;;;;;;26.95;61.98;100181.81;5013172;28;20186;-75
2023/07/20 09:25:46;;;;;;;2.40;1.93;;;;;;;27.19;61.37;100181.66;5022677;28;20188;-76
2023/07/20 09:28:12;;;;;;;2.37;1.70;;;;;;;27.38;62.04;100181.88;5025308;28;20219;-77
2023/07/20 09:30:37;;;;;;;3.10;2.00;;;;;;;27.26;61.60;100185.53;5030267;28;20264;-76
2023/07/20 09:33:02;;;;;;;3.03;1.90;;;;;;;27.07;61.82;100181.69;5025866;28;20204;-76
2023/07/20 09:35:28;;;;;;;2.30;1.77;;;;;;;26.93;61.26;100188.09;5031350;28;20191;-78
2023/07/20 09:38:01;;;;;;;4.47;2.27;;;;;;;26.89;60.89;100189.34;5024004;28;20226;-76
2023/07/20 09:40:27;;;;;;;3.53;1.60;;;;;;;27.01;61.35;100179.53;5031008;28;20183;-77
2023/07/20 09:43:00;;;;;;;4.00;1.87;;;;;;;27.34;58.03;100169.78;5022019;28;20175;-78
2023/07/20 09:45:30;;;;;;;2.20;2.00;;;;;;;27.53;59.59;100168.31;5024181;28;20207;-79
2023/07/20 09:48:04;;;;;;;1.57;1.47;;;;;;;27.64;59.97;100181.56;5028800;28;20210;-76
2023/07/20 09:50:30;;;;;;;2.70;1.70;;;;;;;27.68;58.13;100163.56;5024339;28;20190;-78
2023/07/20 09:52:56;;;;;;;2.23;1.63;;;;;;;27.24;58.95;100161.72;5032015;28;20211;-77
2023/07/20 09:55:24;;;;;;;1.83;1.53;;;;;;;27.12;59.76;100162.72;5034477;28;20188;-77
2023/07/20 09:57:49;;;;;;;2.80;1.90;;;;;;;27.10;60.24;100158.50;5032034;28;20259;-78
2023/07/20 10:00:16;;;;;;;3.17;1.93;;;;;;;27.15;59.90;100154.50;5019311;28;20346;-78
2023/07/20 10:02:43;;;;;;;9.07;2.73;;;;;;;26.81;59.80;100164.34;5029059;28;20175;-78
2023/07/20 10:05:11;;;;;;;3.13;1.90;;;;;;;26.71;60.23;100159.72;5031797;28;20183;-79
2023/07/20 10:07:43;;;;;;;1.93;1.60;;;;;;;26.59;59.83;100160.69;5018790;28;20204;-75
2023/07/20 10:10:10;;;;;;;2.03;1.63;;;;;;;26.45;59.99;100159.97;5023203;28;20189;-78
2023/07/20 10:12:39;;;;;;;1.67;1.30;;;;;;;26.32;60.23;100157.44;5026230;28;20245;-77
2023/07/20 10:15:22;;;;;;;1.83;1.67;;;;;;;26.22;60.78;100150.31;5020718;28;20196;-79
2023/07/20 10:18:31;;;;;;;4.07;2.27;;;;;;;25.85;60.46;100156.59;5025163;28;20207;-78
2023/07/20 10:20:59;;;;;;;2.07;1.80;;;;;;;25.81;61.03;100144.53;5031086;28;20537;-77
2023/07/20 10:23:26;;;;;;;3.20;1.63;;;;;;;25.78;61.56;100142.97;5028856;28;20184;-79
2023/07/20 10:25:53;;;;;;;2.07;1.50;;;;;;;25.71;62.20;100144.38;5031858;28;20252;-78
2023/07/20 10:28:18;;;;;;;2.13;1.73;;;;;;;25.57;61.75;100140.09;5023232;28;20212;-79
2023/07/20 10:30:44;;;;;;;2.00;1.80;;;;;;;25.55;62.14;100139.41;5025805;28;20203;-78
2023/07/20 10:33:10;;;;;;;2.43;1.80;;;;;;;25.51;62.75;100130.81;5026733;28;20231;-79
2023/07/20 10:35:55;;;;;;;2.50;1.70;;;;;;;25.55;61.36;100123.50;5031644;28;20187;-77
2023/07/20 10:38:38;;;;;;;2.97;1.60;;;;;;;25.53;62.11;100120.94;5023285;28;20219;-77
2023/07/20 10:41:03;;;;;;;2.20;1.80;;;;;;;25.54;62.08;100121.81;5032225;28;20261;-78
2023/07/20 10:43:30;;;;;;;1.77;1.60;;;;;;;25.51;62.28;100119.38;5027068;28;20239;-78
2023/07/20 10:45:55;;;;;;;1.80;1.50;;;;;;;25.48;62.09;100119.59;5033034;28;20674;-79
2023/07/20 10:48:23;;;;;;;1.33;1.20;;;;;;;25.47;61.94;100120.56;5032252;28;20211;-78
2023/07/20 10:51:11;;;;;;;1.50;1.40;;;;;;;25.42;62.07;100118.25;5032109;28;20274;-78
2023/07/20 10:53:37;;;;;;;1.80;1.70;;;;;;;25.56;61.70;100118.06;5031591;28;20219;-78
2023/07/20 10:56:13;;;;;;;2.07;1.50;;;;;;;25.62;61.68;100126.53;5033607;28;20176;-77
2023/07/20 10:58:40;;;;;;;3.10;1.60;;;;;;;25.50;61.69;100118.53;5027119;28;20262;-78
2023/07/20 11:01:06;;;;;;;2.77;1.60;;;;;;;25.54;61.68;100119.16;5032929;28;20195;-78
2023/07/20 11:03:40;;;;;;;2.37;1.50;;;;;;;25.63;61.24;100109.69;5021100;28;20180;-78
2023/07/20 11:06:24;;;;;;;2.63;1.50;;;;;;;25.90;60.69;100106.72;5034046;28;20199;-78
2023/07/20 11:09:15;;;;;;;1.60;1.50;;;;;;;25.98;58.46;100108.78;5022444;28;20203;-77
2023/07/20 11:11:45;;;;;;;1.47;1.27;;;;;;;26.12;59.06;100105.94;5028595;28;20460;-77
2023/07/20 11:14:21;;;;;;;1.47;1.37;;;;;;;26.17;57.72;100108.22;5021626;28;20205;-78
2023/07/20 11:16:47;;;;;;;1.33;1.23;;;;;;;26.23;56.03;100104.28;5014274;28;20184;-79
2023/07/20 11:19:23;;;;;;;1.90;1.13;;;;;;;26.34;56.20;100101.63;5019155;28;20210;-78
2023/07/20 11:21:58;;;;;;;2.53;1.50;;;;;;;26.22;56.46;100100.75;5020526;28;20680;-80
2023/07/20 11:24:24;;;;;;;1.47;1.37;;;;;;;26.37;56.13;100093.41;5036088;28;20733;-78